Time;durP1;ratioP1;P1;durP2;ratioP2;P2;SDS_P1;SDS_P2;PMS_P1;PMS_P2;Temp;Humidity;BMP_temperature;BMP_pressure;BME280_temperature;BME280_humidity;BME280_pressure;Samples;Min_cycle;Max_cycle;Signal;HPM_P1;HPM_P2
2022/12/06 09:04:22;;;;;;;8.30;3.17;;;7.10;99.90;;;;;;3181368;23;20247;-72
2022/12/06 09:06:49;;;;;;;8.93;3.43;;;7.20;99.90;;;;;;4882266;29;20214;-72
2022/12/06 09:09:17;;;;;;;11.60;3.03;;;7.30;99.90;;;;;;4888405;29;20209;-72
2022/12/06 09:11:45;;;;;;;6.77;2.87;;;7.50;99.90;;;;;;4889173;29;20239;-72
2022/12/06 09:14:15;;;;;;;5.73;2.83;;;7.60;99.90;;;;;;4876729;29;20694;-71
2022/12/06 09:16:44;;;;;;;7.40;3.90;;;7.60;99.90;;;;;;4862940;29;20216;-72
2022/12/06 09:19:12;;;;;;;11.93;3.30;;;7.50;99.90;;;;;;4862974;29;20712;-72
2022/12/06 09:21:42;;;;;;;8.87;2.80;;;7.50;99.90;;;;;;4871065;29;20242;-72
2022/12/06 09:24:12;;;;;;;8.53;3.43;;;7.60;99.90;;;;;;4862738;29;20219;-72
2022/12/06 09:26:39;;;;;;;5.20;3.10;;;7.60;99.90;;;;;;4862907;29;20225;-73
2022/12/06 09:29:06;;;;;;;6.30;3.13;;;7.60;99.90;;;;;;4862831;29;20208;-72
2022/12/06 09:31:34;;;;;;;5.57;3.00;;;7.70;99.90;;;;;;4862827;29;20228;-73
2022/12/06 09:34:01;;;;;;;9.83;3.90;;;7.90;99.90;;;;;;4880237;29;20216;-72
2022/12/06 09:36:29;;;;;;;7.23;2.83;;;7.90;99.90;;;;;;4881027;29;20573;-73
2022/12/06 09:39:02;;;;;;;14.80;3.20;;;7.80;99.90;;;;;;4881350;29;20222;-72
2022/12/06 09:41:55;;;;;;;4.77;2.70;;;7.80;99.90;;;;;;4880966;29;20235;-71
2022/12/06 09:44:41;;;;;;;5.43;2.50;;;7.80;99.90;;;;;;4880905;29;20221;-72
2022/12/06 09:47:17;;;;;;;6.27;2.67;;;7.80;99.90;;;;;;4880776;29;20219;-72
2022/12/06 09:49:57;;;;;;;5.47;2.30;;;8.10;99.90;;;;;;4880697;29;20210;-72
2022/12/06 09:52:35;;;;;;;5.20;2.60;;;8.10;99.90;;;;;;4880552;29;20257;-72
2022/12/06 09:55:18;;;;;;;8.00;2.43;;;8.10;99.90;;;;;;4880351;29;20305;-72
2022/12/06 09:57:53;;;;;;;7.87;2.77;;;8.20;99.90;;;;;;4880392;29;20213;-73
2022/12/06 10:00:21;;;;;;;5.50;1.93;;;8.40;99.90;;;;;;4880289;29;20674;-71
2022/12/06 10:03:17;;;;;;;5.83;2.90;;;8.50;99.90;;;;;;4880934;29;20602;-72
2022/12/06 10:05:59;;;;;;;5.50;2.20;;;8.40;99.90;;;;;;4880614;29;20223;-72
2022/12/06 10:08:41;;;;;;;5.07;2.50;;;8.40;99.90;;;;;;4880439;29;20211;-71
2022/12/06 10:11:21;;;;;;;4.33;2.10;;;8.20;99.90;;;;;;4880471;29;20231;-72
2022/12/06 10:14:01;;;;;;;4.00;1.73;;;7.90;99.90;;;;;;4879959;29;20219;-72
2022/12/06 10:16:41;;;;;;;7.73;2.37;;;7.80;99.90;;;;;;4879356;29;20215;-71
2022/12/06 10:19:18;;;;;;;3.97;1.77;;;7.80;99.90;;;;;;4880376;29;20215;-71
2022/12/06 10:21:55;;;;;;;10.83;2.10;;;7.50;99.90;;;;;;4880275;29;20241;-72
2022/12/06 10:24:34;;;;;;;3.90;2.07;;;7.40;99.90;;;;;;4880228;29;20677;-72
2022/12/06 10:27:09;;;;;;;5.77;1.77;;;7.60;99.90;;;;;;4879978;29;20214;-72
2022/12/06 10:29:52;;;;;;;3.23;1.93;;;7.60;99.90;;;;;;4880071;29;20693;-72
2022/12/06 10:32:30;;;;;;;10.10;2.00;;;7.30;99.90;;;;;;4879992;29;20235;-72
2022/12/06 10:34:59;;;;;;;5.80;2.10;;;7.30;99.90;;;;;;4880273;29;20222;-72
2022/12/06 10:37:38;;;;;;;2.97;1.70;;;7.50;99.90;;;;;;4884364;29;20217;-72
2022/12/06 10:40:12;;;;;;;7.30;2.00;;;7.60;99.90;;;;;;4884953;29;20309;-72
2022/12/06 10:42:44;;;;;;;4.00;1.90;;;7.80;99.90;;;;;;4883022;29;20233;-72
2022/12/06 10:48:14;;;;;;;3.73;1.60;;;8.00;99.90;;;;;;4880574;29;20213;-71
2022/12/06 10:50:43;;;;;;;11.67;4.70;;;8.00;99.90;;;;;;4880102;29;20210;-71
2022/12/06 10:53:14;;;;;;;4.90;1.73;;;8.10;99.90;;;;;;4879752;29;20316;-71
2022/12/06 10:55:47;;;;;;;4.67;1.60;;;8.20;99.90;;;;;;4879698;29;20214;-71
2022/12/06 10:58:19;;;;;;;3.77;1.60;;;8.30;99.90;;;;;;4879710;29;20229;-70
2022/12/06 11:00:54;;;;;;;3.13;1.53;;;8.40;99.90;;;;;;4879581;29;20231;-72
2022/12/06 11:03:26;;;;;;;5.33;1.57;;;8.20;99.90;;;;;;4874808;29;20242;-72
2022/12/06 11:05:56;;;;;;;4.23;2.10;;;8.20;99.90;;;;;;4878529;29;20214;-70
2022/12/06 11:08:30;;;;;;;3.77;1.60;;;8.20;99.90;;;;;;4876934;29;20685;-72
2022/12/06 11:10:59;;;;;;;5.17;1.40;;;8.20;99.90;;;;;;4874279;29;20718;-73
2022/12/06 11:13:35;;;;;;;4.33;1.70;;;8.00;99.90;;;;;;4878023;29;20305;-75
2022/12/06 11:16:09;;;;;;;6.83;2.20;;;7.80;99.90;;;;;;4877655;29;20297;-73
2022/12/06 11:18:36;;;;;;;3.20;1.60;;;7.70;99.90;;;;;;4877737;29;20471;-75
2022/12/06 11:21:12;;;;;;;2.73;1.20;;;7.70;99.90;;;;;;4877761;29;20231;-76
2022/12/06 11:23:45;;;;;;;5.63;1.70;;;7.90;99.90;;;;;;4877764;29;20268;-74
2022/12/06 11:26:22;;;;;;;2.77;1.60;;;8.10;99.90;;;;;;4877119;29;20584;-74
2022/12/06 11:28:59;;;;;;;5.27;1.93;;;8.10;99.90;;;;;;4878327;29;20207;-77
2022/12/06 11:31:28;;;;;;;2.23;1.50;;;7.90;99.90;;;;;;4878173;29;20231;-75
2022/12/06 11:33:55;;;;;;;5.37;1.70;;;8.00;99.90;;;;;;4876980;29;20306;-74
2022/12/06 11:36:23;;;;;;;2.63;1.67;;;8.00;99.90;;;;;;4878137;29;20309;-72
2022/12/06 11:38:51;;;;;;;2.13;1.50;;;8.10;99.90;;;;;;4877630;29;20692;-77
2022/12/06 11:41:23;;;;;;;3.20;1.53;;;8.10;99.90;;;;;;4877494;29;20353;-74
2022/12/06 11:43:52;;;;;;;2.13;1.13;;;8.20;99.90;;;;;;4877647;29;20710;-75
2022/12/06 11:46:22;;;;;;;3.40;1.80;;;8.20;99.90;;;;;;4877823;29;20214;-77
2022/12/06 11:48:51;;;;;;;3.20;1.50;;;8.40;99.90;;;;;;4877062;29;20215;-79
2022/12/06 11:51:21;;;;;;;3.63;1.50;;;8.50;99.90;;;;;;4877692;29;20235;-75
2022/12/06 11:53:58;;;;;;;2.13;1.10;;;8.40;99.90;;;;;;4877644;29;20305;-75
2022/12/06 11:56:27;;;;;;;3.27;1.40;;;8.30;99.90;;;;;;4877323;29;20677;-77
2022/12/06 11:59:23;;;;;;;2.73;1.63;;;8.30;99.90;;;;;;4877165;29;20208;-76
2022/12/06 12:01:51;;;;;;;4.57;1.50;;;8.20;99.90;;;;;;4878431;29;20731;-71
2022/12/06 12:04:35;;;;;;;3.33;1.53;;;8.40;99.90;;;;;;4878805;29;20277;-72
2022/12/06 12:07:10;;;;;;;2.33;1.37;;;8.50;99.90;;;;;;4878817;29;20215;-71
2022/12/06 12:09:47;;;;;;;3.83;1.40;;;8.40;99.90;;;;;;4878957;29;20211;-71
2022/12/06 12:12:17;;;;;;;3.03;1.67;;;8.30;99.90;;;;;;4878783;29;20590;-71
2022/12/06 12:14:53;;;;;;;4.13;1.63;;;8.30;99.90;;;;;;4878846;29;20667;-72
2022/12/06 12:17:23;;;;;;;2.77;1.30;;;8.30;99.90;;;;;;4878794;29;20221;-71
2022/12/06 12:19:52;;;;;;;2.83;1.30;;;8.40;99.90;;;;;;4879180;29;20214;-72
2022/12/06 12:22:28;;;;;;;3.50;1.53;;;8.60;99.90;;;;;;4878247;29;20254;-71
2022/12/06 12:24:57;;;;;;;2.67;1.20;;;8.80;99.90;;;;;;4879117;29;20211;-71
2022/12/06 12:27:48;;;;;;;4.30;1.50;;;9.10;99.90;;;;;;4878619;29;20251;-71
2022/12/06 12:30:30;;;;;;;4.10;1.17;;;9.30;99.90;;;;;;4879096;29;20214;-71
2022/12/06 12:33:27;;;;;;;2.40;1.17;;;9.30;99.90;;;;;;4878834;29;20212;-71
2022/12/06 12:36:08;;;;;;;2.17;1.40;;;9.10;99.90;;;;;;4878545;29;20211;-71
2022/12/06 12:38:40;;;;;;;2.47;1.60;;;9.00;99.90;;;;;;4880967;29;20562;-72
2022/12/06 12:41:22;;;;;;;2.33;1.20;;;9.10;99.90;;;;;;4881967;29;20722;-71
2022/12/06 12:43:56;;;;;;;1.60;1.03;;;9.10;99.90;;;;;;4881783;29;20598;-71
2022/12/06 12:46:25;;;;;;;2.03;1.13;;;9.10;99.90;;;;;;4881424;29;20211;-71
2022/12/06 12:48:52;;;;;;;4.37;1.20;;;9.20;99.90;;;;;;4881668;29;20215;-72
2022/12/06 12:51:27;;;;;;;3.27;1.40;;;9.10;99.90;;;;;;4879635;29;20234;-72
2022/12/06 12:53:57;;;;;;;2.77;1.47;;;9.30;99.90;;;;;;4881531;29;20219;-72
2022/12/06 12:56:24;;;;;;;2.87;1.50;;;9.10;99.90;;;;;;4881739;29;20211;-71
2022/12/06 12:58:54;;;;;;;2.63;1.50;;;9.10;99.90;;;;;;4880633;29;20290;-71
2022/12/06 13:01:36;;;;;;;2.33;1.50;;;9.00;99.90;;;;;;4881372;29;20230;-72
2022/12/06 13:04:07;;;;;;;2.63;1.40;;;9.10;99.90;;;;;;4881209;29;20773;-72
2022/12/06 13:06:41;;;;;;;2.87;1.33;;;9.10;99.90;;;;;;4880033;29;20218;-72
2022/12/06 13:09:19;;;;;;;6.37;1.67;;;8.90;99.90;;;;;;4881629;29;20207;-72
2022/12/06 13:11:52;;;;;;;3.40;1.67;;;8.90;99.90;;;;;;4880919;29;20231;-72
2022/12/06 13:14:21;;;;;;;5.43;1.83;;;8.80;99.90;;;;;;4881773;29;20219;-72
2022/12/06 13:16:53;;;;;;;4.30;1.90;;;8.70;99.90;;;;;;4881409;29;20211;-72
2022/12/06 13:19:33;;;;;;;3.67;1.77;;;8.70;99.90;;;;;;4881754;29;20211;-73
2022/12/06 13:22:02;;;;;;;3.27;1.83;;;8.70;99.90;;;;;;4881119;29;20239;-71
2022/12/06 13:24:30;;;;;;;6.80;1.90;;;8.80;99.90;;;;;;4881408;29;20247;-72
2022/12/06 13:27:01;;;;;;;3.53;2.00;;;8.90;99.90;;;;;;4881226;29;20663;-72
2022/12/06 13:29:32;;;;;;;7.70;1.77;;;8.80;99.90;;;;;;4881454;29;20241;-73
2022/12/06 13:32:06;;;;;;;2.07;1.50;;;8.90;99.90;;;;;;4880933;29;20242;-72
2022/12/06 13:34:38;;;;;;;5.23;1.87;;;9.00;99.90;;;;;;4881174;29;20218;-72
2022/12/06 13:37:27;;;;;;;6.07;1.87;;;8.70;99.90;;;;;;4881180;29;20219;-72
2022/12/06 13:39:54;;;;;;;4.23;1.40;;;8.60;99.90;;;;;;4880968;29;20686;-71
2022/12/06 13:42:39;;;;;;;4.03;2.17;;;8.70;99.90;;;;;;4880760;29;20227;-72
2022/12/06 13:45:26;;;;;;;3.13;1.67;;;8.70;99.90;;;;;;4880799;29;20218;-72
2022/12/06 13:47:54;;;;;;;2.87;1.60;;;8.60;99.90;;;;;;4880692;29;20720;-71
2022/12/06 13:50:53;;;;;;;4.80;2.40;;;8.60;99.90;;;;;;4879913;29;20214;-71
2022/12/06 13:53:21;;;;;;;2.33;1.80;;;8.50;99.90;;;;;;4880647;29;20229;-72
2022/12/06 13:55:59;;;;;;;4.87;1.83;;;8.50;99.90;;;;;;4881139;29;20212;-71
2022/12/06 13:58:51;;;;;;;3.80;1.60;;;8.70;99.90;;;;;;4880803;29;20199;-72
2022/12/06 14:01:42;;;;;;;3.27;1.80;;;8.60;99.90;;;;;;4880081;29;20737;-72
2022/12/06 14:04:37;;;;;;;4.20;1.83;;;8.60;99.90;;;;;;4862017;29;20602;-72
2022/12/06 14:07:07;;;;;;;6.63;1.97;;;8.80;99.90;;;;;;4874644;29;20624;-72
2022/12/06 14:09:41;;;;;;;2.40;1.40;;;8.80;99.90;;;;;;4880648;29;20249;-70
2022/12/06 14:12:15;;;;;;;2.73;1.83;;;8.80;99.90;;;;;;4880191;29;20585;-72
2022/12/06 14:14:42;;;;;;;3.77;1.90;;;8.80;99.90;;;;;;4880660;29;20571;-72
2022/12/06 14:17:13;;;;;;;6.03;1.63;;;8.70;99.90;;;;;;4880556;29;20214;-72
2022/12/06 14:19:44;;;;;;;4.77;1.53;;;8.70;99.90;;;;;;4880639;29;20207;-73
2022/12/06 14:22:20;;;;;;;3.60;1.60;;;8.80;99.90;;;;;;4880148;29;20713;-71
2022/12/06 14:24:59;;;;;;;3.37;1.73;;;8.80;99.90;;;;;;4880332;29;20249;-72
2022/12/06 14:27:28;;;;;;;2.77;1.57;;;8.70;99.90;;;;;;4880239;29;20214;-72
2022/12/06 14:30:07;;;;;;;4.13;1.67;;;8.70;99.90;;;;;;4880238;29;20207;-71
2022/12/06 14:32:37;;;;;;;2.30;1.30;;;8.80;99.90;;;;;;4879665;29;20246;-72
2022/12/06 14:35:10;;;;;;;1.70;1.13;;;8.80;99.90;;;;;;4879972;29;20229;-73
2022/12/06 14:37:37;;;;;;;9.13;2.67;;;8.80;99.90;;;;;;4880487;29;20207;-72
2022/12/06 14:40:21;;;;;;;4.23;2.13;;;8.80;99.90;;;;;;4880140;29;20305;-72
2022/12/06 14:43:01;;;;;;;2.03;1.30;;;8.90;99.90;;;;;;4880048;29;20242;-71
2022/12/06 14:45:31;;;;;;;6.90;1.93;;;9.00;99.90;;;;;;4879850;29;20214;-72
2022/12/06 14:47:59;;;;;;;4.53;1.73;;;8.90;99.90;;;;;;4880087;29;20211;-71
2022/12/06 14:50:32;;;;;;;5.87;1.50;;;8.90;99.90;;;;;;4879751;29;20215;-69
2022/12/06 14:53:02;;;;;;;2.07;1.10;;;8.90;99.90;;;;;;4879644;29;20537;-69
2022/12/06 14:55:32;;;;;;;2.07;1.20;;;8.90;99.90;;;;;;4879897;29;20215;-69
2022/12/06 14:58:01;;;;;;;4.37;1.53;;;8.90;99.90;;;;;;4879951;29;20213;-69
2022/12/06 15:00:35;;;;;;;3.27;1.20;;;8.90;99.90;;;;;;4879336;29;20215;-69
2022/12/06 15:03:22;;;;;;;3.30;1.10;;;8.80;99.90;;;;;;4879297;29;20206;-69
2022/12/06 15:06:08;;;;;;;3.27;1.30;;;8.60;99.90;;;;;;4879146;29;20302;-72
2022/12/06 15:08:36;;;;;;;3.13;1.30;;;8.60;99.90;;;;;;4879379;29;20306;-70
2022/12/06 15:11:06;;;;;;;3.70;1.40;;;8.50;99.90;;;;;;4879526;29;20238;-71
2022/12/06 15:13:32;;;;;;;2.33;0.90;;;8.50;99.90;;;;;;4879578;29;20211;-72
2022/12/06 15:16:10;;;;;;;1.93;1.10;;;8.50;99.90;;;;;;4879402;29;20282;-72
2022/12/06 15:18:39;;;;;;;1.93;1.03;;;8.60;99.90;;;;;;4879425;29;20757;-69
2022/12/06 15:21:11;;;;;;;4.53;0.90;;;8.40;99.90;;;;;;4879035;29;20242;-69
2022/12/06 15:23:39;;;;;;;4.90;1.00;;;8.30;99.90;;;;;;4878988;29;20698;-69
2022/12/06 15:26:09;;;;;;;5.37;1.47;;;8.40;99.90;;;;;;4879362;29;20302;-69
2022/12/06 15:28:37;;;;;;;2.90;1.33;;;8.30;99.90;;;;;;4878947;29;20211;-69
2022/12/06 15:31:04;;;;;;;10.33;4.67;;;8.50;99.90;;;;;;4879085;29;20647;-68
2022/12/06 15:33:31;;;;;;;6.93;2.47;;;8.60;99.90;;;;;;4879362;29;20229;-69
2022/12/06 15:35:58;;;;;;;3.37;1.10;;;8.60;99.90;;;;;;4879398;29;20378;-72
2022/12/06 15:38:26;;;;;;;4.07;1.30;;;8.60;99.90;;;;;;4879601;29;20550;-69
2022/12/06 15:40:55;;;;;;;4.10;1.37;;;8.70;99.90;;;;;;4879111;29;20231;-71
2022/12/06 15:43:31;;;;;;;6.73;1.30;;;8.60;99.90;;;;;;4878822;29;20211;-71
2022/12/06 15:46:00;;;;;;;4.60;1.63;;;8.60;99.90;;;;;;4878952;29;20215;-71
2022/12/06 15:48:27;;;;;;;3.37;1.57;;;8.50;99.90;;;;;;4879233;29;20211;-72
2022/12/06 15:50:55;;;;;;;4.03;1.70;;;8.50;99.90;;;;;;4878808;29;20703;-73
2022/12/06 15:53:24;;;;;;;2.13;1.27;;;8.50;99.90;;;;;;4878995;29;20695;-73
2022/12/06 15:55:52;;;;;;;2.83;1.40;;;8.50;99.90;;;;;;4878801;29;20218;-72
2022/12/06 15:58:21;;;;;;;4.73;1.60;;;8.50;99.90;;;;;;4878951;29;20702;-72
2022/12/06 16:00:48;;;;;;;4.63;1.60;;;8.50;99.90;;;;;;4878946;29;20231;-69
2022/12/06 16:03:15;;;;;;;5.80;2.33;;;8.40;99.90;;;;;;4878969;29;20215;-71
2022/12/06 16:05:42;;;;;;;5.63;2.00;;;8.50;99.90;;;;;;4878810;29;20237;-72
2022/12/06 16:08:08;;;;;;;6.70;1.90;;;8.60;99.90;;;;;;4879110;29;20211;-72
2022/12/06 16:10:35;;;;;;;4.50;1.60;;;8.60;99.90;;;;;;4878946;29;20218;-72
2022/12/06 16:13:22;;;;;;;3.93;1.60;;;8.60;99.90;;;;;;4880294;29;20408;-72
2022/12/06 16:15:50;;;;;;;4.73;1.67;;;8.50;99.90;;;;;;4882301;29;20211;-72
2022/12/06 16:18:16;;;;;;;2.17;1.43;;;8.40;99.90;;;;;;4882356;29;20207;-70
2022/12/06 16:20:43;;;;;;;2.53;1.50;;;8.30;99.90;;;;;;4882387;29;20221;-70
2022/12/06 16:25:57;;;;;;;5.03;1.67;;;8.20;99.90;;;;;;4886631;29;20214;-71
2022/12/06 16:28:26;;;;;;;6.50;2.20;;;8.20;99.90;;;;;;4900276;29;20247;-75
2022/12/06 16:30:53;;;;;;;5.93;1.50;;;8.30;99.90;;;;;;4899124;29;20299;-75
2022/12/06 16:33:21;;;;;;;2.60;1.20;;;8.20;99.90;;;;;;4892428;29;20217;-79
2022/12/06 16:35:48;;;;;;;4.03;1.60;;;8.30;99.90;;;;;;4882147;29;20217;-79
2022/12/06 16:38:17;;;;;;;3.83;1.60;;;8.20;99.90;;;;;;4882185;29;20211;-79
2022/12/06 16:40:46;;;;;;;3.17;1.60;;;8.30;99.90;;;;;;4882110;29;20322;-78
2022/12/06 16:43:12;;;;;;;2.63;1.50;;;8.40;99.90;;;;;;4882198;29;20570;-75
2022/12/06 16:45:45;;;;;;;4.50;1.80;;;8.40;99.90;;;;;;4881835;29;20242;-77
2022/12/06 16:48:16;;;;;;;9.20;2.60;;;8.40;99.90;;;;;;4881794;29;20318;-76
2022/12/06 16:50:44;;;;;;;3.27;1.87;;;8.50;99.90;;;;;;4882076;29;20222;-80
2022/12/06 16:53:11;;;;;;;6.33;2.30;;;8.30;99.90;;;;;;4882131;29;20217;-79
2022/12/06 16:55:38;;;;;;;4.47;1.60;;;8.30;99.90;;;;;;4881703;29;20215;-78
2022/12/06 16:58:06;;;;;;;3.27;1.83;;;8.30;99.90;;;;;;4881695;29;20211;-78
2022/12/06 17:00:33;;;;;;;5.23;2.07;;;8.30;99.90;;;;;;4881528;29;20735;-78
2022/12/06 17:03:01;;;;;;;3.17;1.60;;;8.30;99.90;;;;;;4881434;29;20290;-77
2022/12/06 17:05:28;;;;;;;6.30;2.13;;;8.30;99.90;;;;;;4882117;29;20242;-78
2022/12/06 17:07:55;;;;;;;4.33;1.93;;;8.30;99.90;;;;;;4881763;29;20218;-76
2022/12/06 17:10:22;;;;;;;4.80;2.20;;;8.30;99.90;;;;;;4881235;29;20207;-77
2022/12/06 17:12:49;;;;;;;4.17;1.80;;;8.20;99.90;;;;;;4881254;29;20758;-78
2022/12/06 17:15:18;;;;;;;2.90;1.60;;;8.20;99.90;;;;;;4881643;29;20214;-78
2022/12/06 17:17:45;;;;;;;5.20;1.50;;;8.20;99.90;;;;;;4881732;29;20225;-77
2022/12/06 17:20:18;;;;;;;4.00;1.47;;;8.10;99.90;;;;;;4881646;29;20213;-79
2022/12/06 17:22:45;;;;;;;6.13;2.13;;;8.00;99.90;;;;;;4881556;29;20235;-78
2022/12/06 17:25:14;;;;;;;4.93;2.03;;;8.00;99.90;;;;;;4880102;29;20715;-79
2022/12/06 17:27:42;;;;;;;4.57;2.20;;;8.00;99.90;;;;;;4881527;29;20304;-79
2022/12/06 17:30:13;;;;;;;5.70;2.30;;;8.00;99.90;;;;;;4881317;29;20671;-78
2022/12/06 17:32:40;;;;;;;5.63;2.03;;;7.90;99.90;;;;;;4881378;29;20234;-79
2022/12/06 17:35:08;;;;;;;4.37;2.10;;;8.00;99.90;;;;;;4881405;29;20247;-79
2022/12/06 17:37:36;;;;;;;4.83;2.17;;;8.00;99.90;;;;;;4881147;29;20222;-78
2022/12/06 17:40:03;;;;;;;3.37;1.97;;;8.10;99.90;;;;;;4881301;29;20213;-79
2022/12/06 17:45:14;;;;;;;5.13;2.03;;;8.20;99.90;;;;;;4880817;29;20242;-75
2022/12/06 17:47:41;;;;;;;13.07;2.40;;;8.20;99.90;;;;;;4881215;29;20223;-78
2022/12/06 17:50:09;;;;;;;3.73;2.07;;;8.20;99.90;;;;;;4880824;29;20219;-78
2022/12/06 17:52:37;;;;;;;5.07;1.70;;;8.30;99.90;;;;;;4880573;29;20227;-77
2022/12/06 17:55:05;;;;;;;4.37;1.83;;;8.30;99.90;;;;;;4880565;29;20217;-76
2022/12/06 17:57:32;;;;;;;5.50;1.90;;;8.20;99.90;;;;;;4881217;29;20208;-78
2022/12/06 17:59:58;;;;;;;3.07;1.70;;;8.40;99.90;;;;;;4880794;29;20215;-75
2022/12/06 18:02:25;;;;;;;3.43;1.73;;;8.30;99.90;;;;;;4880767;29;20691;-78
2022/12/06 18:04:54;;;;;;;3.50;1.90;;;8.20;99.90;;;;;;4880743;29;20239;-78
2022/12/06 18:07:21;;;;;;;6.03;2.37;;;8.30;99.90;;;;;;4880576;29;20679;-76
2022/12/06 18:09:49;;;;;;;4.30;2.20;;;8.40;99.90;;;;;;4880508;29;20221;-78
2022/12/06 18:12:17;;;;;;;3.53;2.00;;;8.30;99.90;;;;;;4880813;29;20250;-76
2022/12/06 18:14:44;;;;;;;6.47;2.20;;;8.30;99.90;;;;;;4880719;29;20237;-78
2022/12/06 18:17:11;;;;;;;6.03;2.30;;;8.30;99.90;;;;;;4880610;29;20208;-78
2022/12/06 18:19:39;;;;;;;5.27;2.40;;;8.20;99.90;;;;;;4880295;29;20215;-78
2022/12/06 18:22:06;;;;;;;7.03;2.40;;;8.10;99.90;;;;;;4880152;29;20230;-78
2022/12/06 18:24:33;;;;;;;4.50;2.60;;;8.10;99.90;;;;;;4880452;29;20233;-78
2022/12/06 18:27:01;;;;;;;5.67;2.63;;;8.10;99.90;;;;;;4880574;29;20259;-78
2022/12/06 18:29:28;;;;;;;4.43;2.40;;;7.90;99.90;;;;;;4880277;29;20259;-78
2022/12/06 18:31:55;;;;;;;4.40;2.37;;;7.90;99.90;;;;;;4879881;29;20765;-76
2022/12/06 18:34:22;;;;;;;6.67;2.70;;;7.80;99.90;;;;;;4880083;29;20718;-77
2022/12/06 18:36:49;;;;;;;5.00;2.60;;;7.90;99.90;;;;;;4879470;29;20226;-78
2022/12/06 18:39:23;;;;;;;3.43;2.40;;;8.00;99.90;;;;;;4880113;29;20219;-77
2022/12/06 18:41:50;;;;;;;5.57;2.40;;;8.00;99.90;;;;;;4880416;29;20619;-74
2022/12/06 18:44:19;;;;;;;8.13;2.53;;;7.90;99.90;;;;;;4880126;29;20412;-78
2022/12/06 18:46:45;;;;;;;8.77;2.80;;;7.90;99.90;;;;;;4880243;29;20574;-79
2022/12/06 18:49:13;;;;;;;6.47;3.10;;;7.90;99.90;;;;;;4879934;29;20705;-78
2022/12/06 18:51:40;;;;;;;5.73;3.10;;;7.80;99.90;;;;;;4879846;29;20224;-78
2022/12/06 18:54:08;;;;;;;6.47;3.23;;;7.80;99.90;;;;;;4880409;29;20211;-76
2022/12/06 18:56:35;;;;;;;9.17;4.13;;;7.60;99.90;;;;;;4879946;29;20218;-77
2022/12/06 18:59:05;;;;;;;9.63;3.90;;;7.60;99.90;;;;;;4879765;29;20239;-77
2022/12/06 19:01:35;;;;;;;6.00;3.30;;;7.70;99.90;;;;;;4879683;29;20253;-79
2022/12/06 19:04:03;;;;;;;7.23;3.10;;;7.60;99.90;;;;;;4879469;29;20314;-73
2022/12/06 19:06:31;;;;;;;9.43;3.23;;;7.50;99.90;;;;;;4879501;29;20215;-77
2022/12/06 19:09:01;;;;;;;6.03;3.07;;;7.50;99.90;;;;;;4879897;29;20211;-76
2022/12/06 19:11:28;;;;;;;5.90;2.63;;;7.50;99.90;;;;;;4880020;29;20231;-78
2022/12/06 19:13:57;;;;;;;6.57;3.03;;;7.50;99.90;;;;;;4879632;29;20586;-78
2022/12/06 19:16:25;;;;;;;11.53;4.00;;;7.60;99.90;;;;;;4879472;29;20274;-75
2022/12/06 19:18:55;;;;;;;6.10;3.33;;;7.50;99.90;;;;;;4880233;29;20225;-74
2022/12/06 19:21:23;;;;;;;7.07;3.20;;;7.50;99.90;;;;;;4879977;29;20315;-78
2022/12/06 19:23:53;;;;;;;5.10;3.20;;;7.60;99.90;;;;;;4879866;29;20211;-77
2022/12/06 19:26:19;;;;;;;5.43;3.13;;;7.60;99.90;;;;;;4879380;29;20253;-78
2022/12/06 19:28:46;;;;;;;7.87;4.07;;;7.70;99.90;;;;;;4879742;29;20262;-77
2022/12/06 19:31:14;;;;;;;5.83;2.97;;;7.70;99.90;;;;;;4879707;29;20234;-79
2022/12/06 19:33:43;;;;;;;5.50;3.17;;;7.70;99.90;;;;;;4879661;29;20302;-80
2022/12/06 19:36:14;;;;;;;7.33;3.10;;;7.60;99.90;;;;;;4879241;29;20215;-79
2022/12/06 19:38:41;;;;;;;9.73;3.50;;;7.50;99.90;;;;;;4879246;29;20302;-79
2022/12/06 19:41:12;;;;;;;6.00;3.47;;;7.50;99.90;;;;;;4879378;29;20231;-79
2022/12/06 19:46:25;;;;;;;7.53;3.53;;;7.30;99.90;;;;;;4879154;29;20241;-78
2022/12/06 19:48:53;;;;;;;5.83;3.20;;;7.20;99.90;;;;;;4878886;29;20237;-77
2022/12/06 19:51:21;;;;;;;7.10;4.17;;;7.20;99.90;;;;;;4879172;29;20235;-79
2022/12/06 19:53:48;;;;;;;6.07;3.47;;;7.10;99.90;;;;;;4879536;29;20215;-78
2022/12/06 19:56:18;;;;;;;8.43;3.77;;;7.20;99.90;;;;;;4878892;29;20223;-77
2022/12/06 19:58:46;;;;;;;6.90;3.70;;;7.20;99.90;;;;;;4878896;29;20345;-78
2022/12/06 20:01:15;;;;;;;12.60;4.20;;;7.20;99.90;;;;;;4879157;29;20516;-78
2022/12/06 20:03:42;;;;;;;7.07;3.83;;;7.10;99.90;;;;;;4879028;29;20221;-79
2022/12/06 20:06:13;;;;;;;8.20;3.97;;;7.10;99.90;;;;;;4878912;29;20242;-78
2022/12/06 20:08:43;;;;;;;6.97;3.83;;;7.00;99.90;;;;;;4879140;29;20746;-76
2022/12/06 20:11:59;;;;;;;6.43;3.73;;;7.00;99.90;;;;;;4879372;29;20239;-78
2022/12/06 20:13:59;;;;;;;5.70;3.10;;;7.00;99.90;;;;;;4878959;29;20211;-77
2022/12/06 20:16:26;;;;;;;8.27;3.83;;;6.90;99.90;;;;;;4879091;29;20612;-76
2022/12/06 20:18:53;;;;;;;8.03;4.27;;;7.00;99.90;;;;;;4878838;29;20219;-78
2022/12/06 20:21:20;;;;;;;10.13;3.53;;;7.00;99.90;;;;;;4878852;29;20235;-78
2022/12/06 20:23:48;;;;;;;9.17;3.77;;;7.00;99.90;;;;;;4879005;29;20689;-73
2022/12/06 20:26:15;;;;;;;7.67;4.00;;;7.00;99.90;;;;;;4878810;29;20241;-71
2022/12/06 20:28:42;;;;;;;8.40;3.67;;;7.00;99.90;;;;;;4878935;29;20215;-70
2022/12/06 20:31:11;;;;;;;8.27;4.20;;;7.00;99.90;;;;;;4878551;29;20233;-71
2022/12/06 20:33:38;;;;;;;7.60;4.07;;;7.10;99.90;;;;;;4879393;29;20214;-74
2022/12/06 20:36:10;;;;;;;7.77;3.73;;;7.20;99.90;;;;;;4878732;29;20211;-71
2022/12/06 20:38:36;;;;;;;9.30;3.83;;;7.30;99.90;;;;;;4878602;29;20566;-79
2022/12/06 20:41:08;;;;;;;5.77;4.10;;;7.30;99.90;;;;;;4878436;29;20227;-79
2022/12/06 20:43:36;;;;;;;7.57;3.87;;;7.30;99.90;;;;;;4878655;29;20211;-77
2022/12/06 20:46:04;;;;;;;8.90;3.80;;;7.10;99.90;;;;;;4878550;29;20242;-79
2022/12/06 20:48:33;;;;;;;7.67;3.87;;;7.00;99.90;;;;;;4879131;29;20207;-77
2022/12/06 20:50:59;;;;;;;9.67;4.43;;;7.00;99.90;;;;;;4878972;29;20249;-78
2022/12/06 20:53:27;;;;;;;7.93;4.23;;;7.10;99.90;;;;;;4878845;29;20226;-75
2022/12/06 20:55:53;;;;;;;7.13;3.60;;;7.10;99.90;;;;;;4878645;29;20215;-70
2022/12/06 20:58:22;;;;;;;7.67;3.90;;;7.00;99.90;;;;;;4878964;29;20302;-71
2022/12/06 21:00:49;;;;;;;7.67;3.43;;;6.90;99.90;;;;;;4882541;29;20237;-73
2022/12/06 21:03:15;;;;;;;7.93;4.47;;;6.90;99.90;;;;;;4881630;29;20656;-72
2022/12/06 21:05:42;;;;;;;8.27;4.00;;;6.80;99.90;;;;;;4881317;29;20245;-71
2022/12/06 21:08:09;;;;;;;4.83;3.47;;;6.80;99.90;;;;;;4881567;29;20207;-73
2022/12/06 21:10:36;;;;;;;8.70;3.80;;;6.80;99.90;;;;;;4881446;29;20222;-69
2022/12/06 21:13:03;;;;;;;5.97;3.43;;;6.80;99.90;;;;;;4881338;29;20219;-72
2022/12/06 21:15:31;;;;;;;7.03;3.47;;;6.80;99.90;;;;;;4881294;29;20215;-71
2022/12/06 21:17:58;;;;;;;7.00;3.90;;;6.80;99.90;;;;;;4881006;29;20217;-73
2022/12/06 21:20:25;;;;;;;7.50;3.57;;;6.80;99.90;;;;;;4881227;29;20211;-70
2022/12/06 21:22:51;;;;;;;9.77;4.07;;;6.80;99.90;;;;;;4881830;29;20211;-79
2022/12/06 21:25:18;;;;;;;13.20;3.23;;;6.80;99.90;;;;;;4881413;29;20235;-79
2022/12/06 21:27:45;;;;;;;8.30;4.03;;;6.70;99.90;;;;;;4881175;29;20215;-77
2022/12/06 21:30:12;;;;;;;7.43;4.23;;;6.70;99.90;;;;;;4881437;29;20215;-77
2022/12/06 21:32:41;;;;;;;10.40;4.10;;;6.60;99.90;;;;;;4880485;29;20235;-77
2022/12/06 21:35:08;;;;;;;6.10;3.70;;;6.60;99.90;;;;;;4879749;29;20636;-76
2022/12/06 21:37:35;;;;;;;5.33;3.63;;;6.70;99.90;;;;;;4881141;29;20207;-77
2022/12/06 21:40:02;;;;;;;11.40;3.70;;;6.60;99.90;;;;;;4881165;29;20211;-78
2022/12/06 21:42:29;;;;;;;5.40;3.47;;;6.70;99.90;;;;;;4879991;29;20233;-78
2022/12/06 21:44:56;;;;;;;6.97;3.20;;;6.70;99.90;;;;;;4881306;29;20207;-78
2022/12/06 21:47:22;;;;;;;8.30;3.63;;;6.70;99.90;;;;;;4881274;29;20221;-78
2022/12/06 21:49:51;;;;;;;7.47;3.70;;;6.70;99.90;;;;;;4881382;29;20219;-77
2022/12/06 21:52:18;;;;;;;7.37;3.67;;;6.70;99.90;;;;;;4880906;29;20318;-77
2022/12/06 21:54:44;;;;;;;7.77;3.43;;;6.70;99.90;;;;;;4880953;29;20218;-75
2022/12/06 21:57:11;;;;;;;6.63;3.70;;;6.70;99.90;;;;;;4881002;29;20682;-75
2022/12/06 21:59:38;;;;;;;6.87;3.90;;;6.60;99.90;;;;;;4882625;29;20211;-73
2022/12/06 22:02:05;;;;;;;10.40;4.23;;;6.80;99.90;;;;;;4898949;29;20298;-74
2022/12/06 22:04:31;;;;;;;7.70;3.67;;;6.80;99.90;;;;;;4899446;29;20247;-74
2022/12/06 22:07:00;;;;;;;9.57;4.40;;;6.80;99.90;;;;;;4893621;29;20325;-77
2022/12/06 22:09:26;;;;;;;9.00;3.67;;;6.90;99.90;;;;;;4880826;29;20682;-78
2022/12/06 22:11:53;;;;;;;6.47;3.67;;;7.00;99.90;;;;;;4880744;29;20231;-78
2022/12/06 22:14:20;;;;;;;6.63;4.07;;;7.00;99.90;;;;;;4878302;29;20223;-75
